Погода Гилбуесна неделю

Пиауи, Бразилия

17 - 23 июля
  • 17июля
    Сегодня
    +20°
    +33°
    Практически безоблачно
    ВремяПогодаТемператураВлажностьДавлениеВетер, м/сВероятность осадков
    00:00Ясно и безоблачно+21°C45 %724 мм2.3 м/с5 %
    03:00Ясно и безоблачно+19°C46 %723 мм3.2 м/с5 %
    06:00Ясно и безоблачно+18°C58 %724 мм2.9 м/с5 %
    09:00Ясно и безоблачно+26°C50 %726 мм5.6 м/с5 %
    12:00Облачно с прояснениями+30°C33 %724 мм6.2 м/с4 %
    15:00Практически безоблачно+33°C27 %722 мм4.6 м/с5 %
    18:00Практически безоблачно+30°C31 %722 мм2.4 м/с5 %
    21:00Практически безоблачно+27°C39 %723 мм3.5 м/с5 %
  • 18июля
    Четверг
    +19°
    +33°
    Ясно и безоблачно
    ВремяПогодаТемператураВлажностьДавлениеВетер, м/сВероятность осадков
    00:00Облачно с прояснениями+23°C46 %723 мм1.5 м/с5 %
    03:00Ясно и безоблачно+21°C49 %722 мм3.4 м/с5 %
    06:00Ясно и безоблачно+21°C65 %723 мм3.7 м/с5 %
    09:00Ясно и безоблачно+25°C49 %725 мм5.1 м/с5 %
    12:00Ясно и безоблачно+30°C29 %724 мм5.0 м/с5 %
    15:00Ясно и безоблачно+33°C25 %722 мм3.5 м/с5 %
    18:00Ясно и безоблачно+30°C30 %722 мм1.9 м/с5 %
    21:00Ясно и безоблачно+26°C37 %723 мм2.4 м/с5 %
  • 19июля
    Пятница
    +20°
    +34°
    Ясно и безоблачно
    ВремяПогодаТемператураВлажностьДавлениеВетер, м/сВероятность осадков
    00:00Ясно и безоблачно+22°C42 %723 мм2.6 м/с5 %
    03:00Ясно и безоблачно+21°C44 %722 мм4.1 м/с5 %
    06:00Ясно и безоблачно+19°C57 %723 мм3.7 м/с5 %
    09:00Ясно и безоблачно+25°C54 %725 мм5.6 м/с5 %
    12:00Ясно и безоблачно+30°C33 %724 мм5.1 м/с5 %
    15:00Ясно и безоблачно+33°C27 %722 мм3.8 м/с5 %
    18:00Ясно и безоблачно+31°C32 %722 мм2.7 м/с5 %
    21:00Ясно и безоблачно+28°C37 %723 мм3.8 м/с5 %
  • 20июля
    Суббота
    +19°
    +33°
    Практически безоблачно
    ВремяПогодаТемператураВлажностьДавлениеВетер, м/сВероятность осадков
    00:00Ясно и безоблачно+24°C44 %723 мм2.7 м/с5 %
    03:00Ясно и безоблачно+22°C48 %722 мм4.2 м/с5 %
    06:00Ясно и безоблачно+20°C55 %723 мм3.4 м/с5 %
    09:00Ясно и безоблачно+25°C48 %725 мм5.5 м/с5 %
    12:00Ясно и безоблачно+30°C32 %724 мм5.3 м/с5 %
    15:00Практически безоблачно+32°C27 %722 мм4.2 м/с5 %
    18:00Ясно и безоблачно+29°C29 %722 мм2.6 м/с5 %
    21:00Пасмурно, сплошная облачность+28°C33 %723 мм2.5 м/с5 %
  • 21июля
    Воскресенье
    +17°
    +33°
    Ясно и безоблачно
    ВремяПогодаТемператураВлажностьДавлениеВетер, м/сВероятность осадков
    00:00Практически безоблачно+23°C39 %723 мм2.2 м/с5 %
    03:00Ясно и безоблачно+21°C47 %722 мм3.8 м/с5 %
    06:00Ясно и безоблачно+20°C62 %722 мм3.1 м/с5 %
    09:00Ясно и безоблачно+24°C48 %724 мм4.9 м/с5 %
    12:00Ясно и безоблачно+30°C27 %723 мм4.7 м/с5 %
    15:00Ясно и безоблачно+33°C20 %721 мм4.2 м/с5 %
    18:00Ясно и безоблачно+29°C22 %721 мм3.5 м/с5 %
    21:00Ясно и безоблачно+27°C30 %722 мм3.3 м/с5 %
Мы используем cookies
Соглашаюсь